Portada
METAR-TAF:

METAR-TAF

Aeropuertos :

Aeropuerto de Nueva Loja

Nueva Loja, Ecuador

latitud: 00-05-33N, longitud: 076-52-10W, altitud: 299 m

Observación

El informe se hizo hace 1 hora y 0 minutos, a las 16:00 UTC
Viento 3 kt del este
Temperatura 29°C
Humedad 70%
Presión 1015 hPa
Visibilidad 10 km o más
Nubes dispersas a una altura de 4000 ft
Cielo nuboso a una altura de 10000 ft

METAR: SENL 151600Z 09003KT 9999 SCT040 BKN100 29/23 Q1015 RMK A2998

Hora: 12:00 (17:00 UTC)


TAF: falta

Observaciones y pronósticos meteorológicos de más de 4000 aeropuertos (mensajes METAR y TAF).

Los puntos amarillos y rojos representan las estaciones disponibles.

Ponga el ratón en el punto deseado para ver el nombre de la estación.

Haga clic para ver las observaciones y los pronósticos meteorológicos.

Para cambiar el mapa : haga clic en los botones verdes con una cruz de color negro para hacer un zoom, en el botón verde con un guión para alejar o en las flechas verdes para mapas adyacentes.


METAR-TAF: